createdAt,value
2017-09-06T00:01:40.229Z,0
2017-09-06T00:11:40.199Z,0
2017-09-06T00:21:40.285Z,0
2017-09-06T00:31:40.195Z,0
2017-09-06T00:41:40.168Z,0
2017-09-06T00:51:40.234Z,0
2017-09-06T01:01:40.237Z,0
2017-09-06T01:11:40.176Z,0
2017-09-06T01:21:40.230Z,0
2017-09-06T01:31:40.162Z,0
2017-09-06T01:41:40.265Z,0
2017-09-06T01:51:40.229Z,0
2017-09-06T02:01:40.158Z,0
2017-09-06T02:11:40.287Z,0
2017-09-06T02:21:40.226Z,0
2017-09-06T02:31:40.265Z,0
2017-09-06T02:41:40.205Z,0
2017-09-06T02:51:40.180Z,0
2017-09-06T03:01:40.243Z,0
2017-09-06T03:11:40.239Z,0
2017-09-06T03:21:40.268Z,0
2017-09-06T03:31:40.236Z,0
2017-09-06T03:41:40.169Z,0
2017-09-06T03:51:40.256Z,0
2017-09-06T04:01:40.202Z,0
2017-09-06T04:11:40.317Z,0
2017-09-06T04:21:40.280Z,0
2017-09-06T04:31:40.229Z,0
2017-09-06T04:41:40.259Z,0
2017-09-06T04:51:40.202Z,0
2017-09-06T05:01:40.206Z,0
2017-09-06T05:11:40.221Z,5
2017-09-06T05:21:40.185Z,5
2017-09-06T05:31:40.309Z,10
2017-09-06T05:41:40.273Z,40
2017-09-06T05:51:40.259Z,35
2017-09-06T06:01:40.285Z,30
2017-09-06T06:11:42.954Z,95
2017-09-06T06:21:40.281Z,35
2017-09-06T06:31:40.143Z,20
2017-09-06T06:41:40.162Z,25
2017-09-06T06:51:40.160Z,40
2017-09-06T07:01:40.155Z,45
2017-09-06T07:11:40.202Z,35
2017-09-06T07:21:40.202Z,85
2017-09-06T07:31:40.203Z,150
2017-09-06T07:41:40.213Z,70
2017-09-06T07:51:40.197Z,70
2017-09-06T08:01:40.176Z,45
2017-09-06T08:11:40.184Z,120
2017-09-06T08:21:40.195Z,85
2017-09-06T08:31:40.205Z,70
2017-09-06T08:41:40.186Z,50
2017-09-06T08:51:40.201Z,90
2017-09-06T09:01:40.221Z,220
2017-09-06T09:11:40.197Z,60
2017-09-06T09:21:40.217Z,95
2017-09-06T09:31:40.205Z,100
2017-09-06T09:41:40.202Z,205
2017-09-06T09:51:40.170Z,260
2017-09-06T10:01:40.228Z,175
2017-09-06T10:11:40.221Z,215
2017-09-06T10:21:40.179Z,220
2017-09-06T10:31:40.244Z,140
2017-09-06T10:41:40.368Z,120
2017-09-06T10:51:40.291Z,130
2017-09-06T11:01:40.285Z,195
2017-09-06T11:11:40.307Z,240
2017-09-06T11:21:40.232Z,210
2017-09-06T11:31:40.320Z,215
2017-09-06T11:41:40.292Z,180
2017-09-06T11:51:40.257Z,150
2017-09-06T12:01:40.291Z,110
2017-09-06T12:11:40.379Z,170
2017-09-06T12:21:40.460Z,95
2017-09-06T12:31:40.244Z,145
2017-09-06T12:41:40.203Z,160
2017-09-06T12:51:40.236Z,220
2017-09-06T13:01:40.235Z,90
2017-09-06T13:11:40.430Z,25
2017-09-06T13:21:40.206Z,60
2017-09-06T13:31:40.255Z,165
2017-09-06T13:41:40.318Z,195
2017-09-06T13:51:40.261Z,175
2017-09-06T14:01:40.249Z,160
2017-09-06T14:11:40.369Z,160
2017-09-06T14:21:40.271Z,50
2017-09-06T14:31:40.318Z,55
2017-09-06T14:41:41.337Z,100
2017-09-06T14:51:40.279Z,80
2017-09-06T15:01:40.329Z,95
2017-09-06T15:11:40.259Z,100
2017-09-06T15:21:40.355Z,90
2017-09-06T15:31:40.368Z,110
2017-09-06T15:41:40.332Z,110
2017-09-06T15:51:40.227Z,65
2017-09-06T16:01:40.258Z,45
2017-09-06T16:11:40.331Z,30
2017-09-06T16:21:40.241Z,35
2017-09-06T16:31:40.194Z,40
2017-09-06T16:41:40.479Z,65
2017-09-06T16:51:40.202Z,50
2017-09-06T17:01:40.279Z,45
2017-09-06T17:11:40.242Z,35
2017-09-06T17:21:40.295Z,30
2017-09-06T17:31:40.321Z,20
2017-09-06T17:41:40.245Z,10
2017-09-06T17:51:40.495Z,5
2017-09-06T18:01:40.198Z,0
2017-09-06T18:11:40.258Z,0
2017-09-06T18:21:40.274Z,0
2017-09-06T18:31:40.248Z,0
2017-09-06T18:41:40.225Z,0
2017-09-06T18:51:40.263Z,0
2017-09-06T19:01:40.274Z,0
2017-09-06T19:11:40.379Z,0
2017-09-06T19:21:40.204Z,0
2017-09-06T19:31:40.245Z,0
2017-09-06T19:41:40.408Z,0
2017-09-06T19:51:40.414Z,0
2017-09-06T20:01:40.477Z,0
2017-09-06T20:11:41.594Z,0
2017-09-06T20:21:40.310Z,0
2017-09-06T20:31:40.237Z,0
2017-09-06T20:41:40.283Z,0
2017-09-06T20:51:40.298Z,0
2017-09-06T21:01:40.291Z,0
2017-09-06T21:11:40.317Z,0
2017-09-06T21:21:40.356Z,0
2017-09-06T21:31:40.437Z,0
2017-09-06T21:41:40.220Z,0
2017-09-06T21:51:40.372Z,0
2017-09-06T22:01:40.298Z,0
2017-09-06T22:11:40.316Z,0
2017-09-06T22:21:41.299Z,0
2017-09-06T22:31:40.533Z,0
2017-09-06T22:41:41.306Z,0
2017-09-06T22:51:40.359Z,0
2017-09-06T23:01:42.240Z,0
2017-09-06T23:11:40.266Z,0
2017-09-06T23:21:43.713Z,0
2017-09-06T23:31:41.321Z,0
2017-09-06T23:41:46.317Z,0
2017-09-06T23:51:40.285Z,0
